Time;durP1;ratioP1;P1;durP2;ratioP2;P2;SDS_P1;SDS_P2;PMS_P1;PMS_P2;Temp;Humidity;BMP_temperature;BMP_pressure;BME280_temperature;BME280_humidity;BME280_pressure;Samples;Min_cycle;Max_cycle;Signal;HPM_P1;HPM_P2
2023/01/25 00:01:30;;;;;;;20.83;11.15;;;;;;;1.16;90.54;100863.97;5111538;28;20055;-71
2023/01/25 00:03:57;;;;;;;17.73;11.23;;;;;;;1.25;90.97;100861.69;5110808;28;20031;-70
2023/01/25 00:06:22;;;;;;;20.25;10.40;;;;;;;1.17;91.32;100865.63;5110017;28;20057;-70
2023/01/25 00:08:49;;;;;;;18.55;10.48;;;;;;;1.20;90.47;100867.91;5111854;28;20498;-71
2023/01/25 00:11:19;;;;;;;17.13;9.32;;;;;;;1.22;90.68;100873.19;5111795;28;20030;-71
2023/01/25 00:13:44;;;;;;;17.45;11.20;;;;;;;1.24;90.21;100866.38;5110610;28;20044;-71
2023/01/25 00:16:10;;;;;;;17.77;10.45;;;;;;;1.18;90.44;100864.56;5111707;28;20039;-71
2023/01/25 00:18:35;;;;;;;15.32;9.35;;;;;;;1.18;89.96;100864.56;5111568;28;20028;-71
2023/01/25 00:21:23;;;;;;;17.20;10.50;;;;;;;1.21;91.10;100866.88;5110268;28;20446;-71
2023/01/25 00:23:49;;;;;;;17.48;10.63;;;;;;;1.36;90.07;100880.16;5091214;28;20047;-71
2023/01/25 00:26:15;;;;;;;16.88;9.75;;;;;;;1.38;90.05;100871.66;5111605;28;20502;-71
2023/01/25 00:28:40;;;;;;;15.00;9.68;;;;;;;1.28;90.16;100871.41;5111707;28;20031;-71
2023/01/25 00:31:08;;;;;;;18.20;11.15;;;;;;;1.34;90.30;100874.06;5109915;28;20071;-71
2023/01/25 00:33:37;;;;;;;17.35;9.88;;;;;;;1.32;90.55;100873.44;5109945;28;20089;-70
2023/01/25 00:36:27;;;;;;;22.42;10.65;;;;;;;1.32;90.10;100878.13;5111219;28;20031;-71
2023/01/25 00:38:53;;;;;;;15.48;10.27;;;;;;;1.24;89.86;100871.88;5111664;28;20023;-71
2023/01/25 00:41:19;;;;;;;17.05;9.18;;;;;;;1.19;90.65;100871.75;5111296;28;20035;-71
2023/01/25 00:43:45;;;;;;;16.02;9.20;;;;;;;1.32;89.79;100880.88;5110170;28;20063;-70
2023/01/25 00:46:15;;;;;;;18.00;9.55;;;;;;;1.28;89.61;100882.44;5111480;28;20055;-71
2023/01/25 00:48:40;;;;;;;17.13;10.77;;;;;;;1.34;89.20;100881.50;5111522;28;20076;-71
2023/01/25 00:51:05;;;;;;;18.77;10.93;;;;;;;1.16;89.77;100866.72;5111199;28;20078;-71
2023/01/25 00:53:31;;;;;;;16.15;10.68;;;;;;;1.28;90.97;100887.94;5110104;28;20034;-71
2023/01/25 00:55:56;;;;;;;21.55;9.85;;;;;;;1.21;89.78;100875.13;5109343;28;20486;-71
2023/01/25 00:58:22;;;;;;;16.70;9.65;;;;;;;1.16;91.68;100880.50;5104336;28;20112;-71
2023/01/25 01:00:47;;;;;;;16.10;9.23;;;;;;;1.13;91.38;100872.72;5111186;28;20078;-71
2023/01/25 01:03:13;;;;;;;17.02;10.00;;;;;;;1.11;91.24;100869.38;5112767;28;20031;-70
2023/01/25 01:05:38;;;;;;;14.77;9.38;;;;;;;1.20;92.29;100867.09;5114165;28;20031;-71
2023/01/25 01:08:04;;;;;;;18.13;9.63;;;;;;;1.17;92.43;100871.16;5114964;28;20023;-71
2023/01/25 01:10:29;;;;;;;20.73;10.32;;;;;;;1.24;92.29;100866.38;5113592;28;20503;-71
2023/01/25 01:12:55;;;;;;;16.88;9.80;;;;;;;1.19;92.70;100871.75;5115180;28;20603;-71
2023/01/25 01:15:20;;;;;;;19.17;9.45;;;;;;;1.11;92.14;100859.16;5113102;28;20092;-71
2023/01/25 01:17:46;;;;;;;15.68;8.90;;;;;;;1.23;92.32;100867.47;5113656;28;20550;-70
2023/01/25 01:20:12;;;;;;;16.13;8.55;;;;;;;1.15;91.88;100856.78;5113969;28;20057;-71
2023/01/25 01:22:37;;;;;;;16.08;7.95;;;;;;;1.05;92.38;100857.38;5114880;28;20027;-71
2023/01/25 01:25:03;;;;;;;17.77;8.60;;;;;;;1.14;92.67;100855.09;5113711;28;20076;-71
2023/01/25 01:27:28;;;;;;;14.20;8.63;;;;;;;1.12;93.40;100846.22;5113454;28;20019;-71
2023/01/25 01:29:54;;;;;;;13.23;7.70;;;;;;;1.07;92.13;100849.69;5114470;28;20039;-71
2023/01/25 01:32:19;;;;;;;15.85;8.27;;;;;;;0.95;91.87;100840.56;5114662;28;20028;-71
2023/01/25 01:34:45;;;;;;;12.10;7.65;;;;;;;0.93;91.87;100835.28;5112398;28;20031;-71
2023/01/25 01:37:10;;;;;;;16.08;8.85;;;;;;;0.88;92.27;100837.94;5114710;28;20500;-71
2023/01/25 01:39:35;;;;;;;13.60;7.28;;;;;;;0.87;92.14;100836.25;5114548;28;20392;-72
2023/01/25 01:42:02;;;;;;;12.55;7.75;;;;;;;0.90;92.46;100841.28;5114215;28;20039;-71
2023/01/25 01:45:00;;;;;;;13.32;7.38;;;;;;;0.94;92.71;100853.50;5113307;28;20053;-71
2023/01/25 01:47:29;;;;;;;15.10;7.80;;;;;;;0.85;93.38;100841.16;5080199;28;20049;-71
2023/01/25 01:50:03;;;;;;;12.82;7.13;;;;;;;0.91;92.81;100847.66;5113172;28;20111;-71
2023/01/25 01:52:34;;;;;;;12.93;8.27;;;;;;;0.98;93.52;100840.09;5109313;28;20328;-71
2023/01/25 01:55:22;;;;;;;14.45;8.02;;;;;;;0.90;93.74;100840.44;5113473;28;20027;-71
2023/01/25 01:57:56;;;;;;;11.68;7.70;;;;;;;0.90;93.70;100841.28;5114191;28;20024;-71
2023/01/25 02:00:33;;;;;;;11.00;6.85;;;;;;;0.89;92.97;100847.88;5113974;27;20020;-71
2023/01/25 02:03:00;;;;;;;13.05;6.88;;;;;;;0.81;93.12;100839.94;5112933;28;20093;-71
2023/01/25 02:06:04;;;;;;;10.93;7.05;;;;;;;0.93;92.75;100849.06;5112903;28;20027;-71
2023/01/25 02:08:32;;;;;;;13.23;6.82;;;;;;;0.96;93.14;100843.06;5081826;28;20071;-71
2023/01/25 02:10:59;;;;;;;13.32;7.93;;;;;;;0.93;91.17;100838.03;5112511;28;20024;-71
2023/01/25 02:13:26;;;;;;;13.55;7.50;;;;;;;1.02;90.67;100846.78;5112321;27;20057;-71
2023/01/25 02:15:55;;;;;;;12.15;7.38;;;;;;;0.97;91.49;100831.00;5114043;28;20497;-71
2023/01/25 02:18:20;;;;;;;12.75;6.72;;;;;;;0.92;91.72;100832.78;5113628;28;20028;-71
2023/01/25 02:20:50;;;;;;;12.63;6.70;;;;;;;0.96;90.79;100837.56;5113677;28;20077;-71
2023/01/25 02:23:37;;;;;;;9.67;6.53;;;;;;;1.00;89.79;100839.88;5112604;28;20032;-71
2023/01/25 02:26:05;;;;;;;13.00;6.50;;;;;;;0.94;91.17;100834.22;5113826;28;20397;-71
2023/01/25 02:28:42;;;;;;;16.35;7.38;;;;;;;1.02;91.90;100846.78;5112308;28;20155;-72
2023/01/25 02:31:08;;;;;;;11.43;6.85;;;;;;;1.01;91.24;100847.88;5113478;28;20048;-71
2023/01/25 02:33:34;;;;;;;9.30;5.47;;;;;;;1.05;90.84;100851.00;5111151;28;20042;-71
2023/01/25 02:36:05;;;;;;;12.68;6.75;;;;;;;0.91;91.20;100845.72;5113388;28;20028;-72
2023/01/25 02:38:34;;;;;;;13.00;6.90;;;;;;;0.97;91.22;100833.75;5113329;28;20034;-72
2023/01/25 02:41:08;;;;;;;10.73;6.38;;;;;;;0.97;91.42;100831.00;5113313;28;20019;-71
2023/01/25 02:43:34;;;;;;;10.73;6.03;;;;;;;0.88;91.81;100835.19;5110815;28;20497;-71
2023/01/25 02:46:13;;;;;;;11.30;7.03;;;;;;;0.84;91.51;100836.72;5113326;28;20490;-71
2023/01/25 02:48:38;;;;;;;13.70;6.85;;;;;;;0.86;92.50;100842.00;5113255;28;20035;-71
2023/01/25 02:51:08;;;;;;;10.82;7.03;;;;;;;0.75;92.62;100830.69;5111888;28;20019;-71
2023/01/25 02:53:33;;;;;;;13.50;6.97;;;;;;;0.64;94.85;100834.25;5101273;28;20060;-71
2023/01/25 02:55:59;;;;;;;13.57;6.88;;;;;;;0.63;94.01;100838.09;5091473;28;20027;-72
2023/01/25 02:58:25;;;;;;;11.57;6.85;;;;;;;0.63;94.14;100838.94;5100316;28;20066;-71
2023/01/25 03:00:50;;;;;;;12.63;7.07;;;;;;;0.63;94.91;100838.94;5113093;28;20020;-71
2023/01/25 03:03:16;;;;;;;12.25;7.57;;;;;;;0.66;94.82;100838.47;5110422;28;20508;-71
2023/01/25 03:05:42;;;;;;;14.25;7.18;;;;;;;0.66;94.62;100846.72;5112946;28;20035;-71
2023/01/25 03:08:08;;;;;;;14.82;6.78;;;;;;;0.63;94.69;100832.59;5111305;28;20528;-71
2023/01/25 03:10:33;;;;;;;9.20;5.60;;;;;;;0.69;95.92;100843.50;5112780;28;20051;-71
2023/01/25 03:12:59;;;;;;;10.07;6.22;;;;;;;0.70;95.09;100850.69;5111647;28;20079;-71
2023/01/25 03:15:24;;;;;;;13.10;6.45;;;;;;;0.68;95.20;100838.25;5112835;28;20030;-72
2023/01/25 03:17:50;;;;;;;10.02;6.07;;;;;;;0.79;94.66;100842.94;5111427;28;20054;-71
2023/01/25 03:20:15;;;;;;;11.52;6.68;;;;;;;0.82;93.86;100825.09;5112493;28;20081;-71
2023/01/25 03:22:41;;;;;;;14.38;7.88;;;;;;;0.86;91.71;100833.72;5110386;28;20065;-71
2023/01/25 03:25:07;;;;;;;12.05;5.97;;;;;;;0.74;92.29;100826.28;5111215;28;20043;-72
2023/01/25 03:27:32;;;;;;;15.50;6.28;;;;;;;0.83;92.62;100837.78;5106198;28;20038;-71
2023/01/25 03:29:58;;;;;;;12.15;6.80;;;;;;;0.78;93.61;100840.41;5112347;28;20035;-72
2023/01/25 03:32:23;;;;;;;13.68;7.28;;;;;;;0.83;92.91;100837.78;5112043;28;20080;-70
2023/01/25 03:34:49;;;;;;;11.00;6.80;;;;;;;0.86;92.59;100848.34;5111718;28;20110;-71
2023/01/25 03:37:15;;;;;;;12.55;6.63;;;;;;;0.80;91.43;100841.03;5112329;28;20034;-71
2023/01/25 03:39:40;;;;;;;14.82;7.07;;;;;;;0.86;90.52;100837.34;5111960;28;20106;-71
2023/01/25 03:42:06;;;;;;;12.65;7.40;;;;;;;0.87;90.64;100844.53;5110979;28;20031;-71
2023/01/25 03:44:31;;;;;;;11.32;6.50;;;;;;;0.76;90.47;100842.56;5109951;28;20035;-71
2023/01/25 03:46:57;;;;;;;9.07;6.00;;;;;;;0.83;91.21;100835.88;5110978;28;20421;-71
2023/01/25 03:49:22;;;;;;;11.02;6.35;;;;;;;0.84;90.48;100837.56;5110766;28;20031;-72
2023/01/25 03:51:48;;;;;;;10.80;5.72;;;;;;;0.87;89.53;100835.41;5110469;28;20515;-71
2023/01/25 03:54:14;;;;;;;15.88;6.25;;;;;;;0.80;90.85;100827.25;5108083;28;20032;-71
2023/01/25 03:56:39;;;;;;;11.15;6.75;;;;;;;0.76;90.27;100828.81;5111663;28;20023;-71
2023/01/25 03:59:05;;;;;;;9.38;5.40;;;;;;;0.79;89.75;100840.19;5108140;28;20119;-71
2023/01/25 04:01:31;;;;;;;10.88;6.20;;;;;;;0.70;89.09;100842.44;5110469;28;20038;-71
2023/01/25 04:03:56;;;;;;;10.60;6.20;;;;;;;0.78;89.41;100837.66;5109843;28;20486;-71
2023/01/25 04:06:22;;;;;;;10.32;6.13;;;;;;;0.73;88.32;100846.63;5111934;28;20035;-71
2023/01/25 04:08:47;;;;;;;13.40;6.13;;;;;;;0.67;90.04;100839.31;5110468;28;20571;-71
2023/01/25 04:11:13;;;;;;;9.00;5.43;;;;;;;0.69;89.45;100848.19;5110563;28;20412;-71
2023/01/25 04:13:38;;;;;;;9.73;5.53;;;;;;;0.77;89.27;100842.31;5110541;28;20031;-71
2023/01/25 04:16:06;;;;;;;9.75;5.38;;;;;;;0.79;89.40;100844.84;5111698;28;20024;-71
2023/01/25 04:18:32;;;;;;;9.82;5.82;;;;;;;0.75;88.48;100840.91;5111570;28;20111;-71
2023/01/25 04:20:58;;;;;;;11.07;6.30;;;;;;;0.83;89.28;100843.28;5110166;28;20020;-71
2023/01/25 04:23:25;;;;;;;9.15;5.15;;;;;;;0.68;88.55;100841.00;5110472;28;20027;-71
2023/01/25 04:25:56;;;;;;;11.30;5.05;;;;;;;0.73;88.85;100845.81;5111644;28;20027;-71
2023/01/25 04:28:22;;;;;;;7.60;5.05;;;;;;;0.68;89.04;100850.09;5110471;28;20433;-71
2023/01/25 04:30:48;;;;;;;9.80;5.38;;;;;;;0.77;88.29;100839.56;5111223;28;20118;-71
2023/01/25 04:33:13;;;;;;;9.38;5.95;;;;;;;0.70;88.77;100841.59;5110471;28;20027;-71
2023/01/25 04:35:39;;;;;;;12.60;6.43;;;;;;;0.69;88.39;100845.44;5111879;28;20024;-71
2023/01/25 04:38:04;;;;;;;8.88;5.53;;;;;;;0.67;89.10;100845.66;5115811;28;20023;-71
2023/01/25 04:40:30;;;;;;;9.18;5.63;;;;;;;0.65;88.42;100847.81;5114304;28;20057;-71
2023/01/25 04:42:56;;;;;;;8.05;5.32;;;;;;;0.66;87.13;100843.13;5114403;28;20027;-71
2023/01/25 04:45:25;;;;;;;8.55;5.50;;;;;;;0.66;87.64;100843.13;5115547;28;20111;-71
2023/01/25 04:48:02;;;;;;;10.25;5.97;;;;;;;0.68;89.07;100843.75;5115495;27;20106;-71
2023/01/25 04:50:28;;;;;;;8.82;5.07;;;;;;;0.73;87.76;100846.63;5115385;28;20073;-71
2023/01/25 04:52:53;;;;;;;10.60;5.88;;;;;;;0.70;87.71;100841.59;5112863;28;20481;-71
2023/01/25 04:55:20;;;;;;;15.15;5.60;;;;;;;0.73;89.26;100845.81;5115451;27;20023;-71
2023/01/25 04:57:49;;;;;;;9.63;5.75;;;;;;;0.78;88.29;100846.75;5112743;28;20416;-71
2023/01/25 05:00:15;;;;;;;7.28;4.18;;;;;;;0.64;87.97;100840.63;5113818;28;20020;-71
2023/01/25 05:02:41;;;;;;;9.45;5.20;;;;;;;0.66;88.26;100838.47;5114187;28;20042;-71
2023/01/25 05:05:07;;;;;;;7.43;4.50;;;;;;;0.70;87.39;100849.88;5114198;28;20028;-71
2023/01/25 05:07:33;;;;;;;8.65;5.38;;;;;;;0.76;86.86;100848.09;5115133;28;20032;-71
2023/01/25 05:09:58;;;;;;;8.95;5.47;;;;;;;0.79;85.40;100842.94;5113475;28;20049;-71
2023/01/25 05:12:24;;;;;;;8.90;4.90;;;;;;;0.79;86.17;100856.72;5113814;28;20521;-71
2023/01/25 05:14:49;;;;;;;8.95;4.97;;;;;;;0.67;86.14;100855.84;5114072;28;20456;-71
2023/01/25 05:17:15;;;;;;;10.73;5.20;;;;;;;0.62;87.42;100858.44;5114957;28;20027;-72
2023/01/25 05:19:41;;;;;;;7.60;4.47;;;;;;;0.63;86.87;100866.50;5113529;28;20023;-70
2023/01/25 05:22:11;;;;;;;8.55;5.63;;;;;;;0.66;86.91;100856.91;5114598;28;20035;-71
2023/01/25 05:24:40;;;;;;;8.00;5.20;;;;;;;0.78;87.37;100856.94;5113900;28;20035;-71
2023/01/25 05:27:07;;;;;;;8.23;4.82;;;;;;;0.66;86.71;100859.66;5114671;28;20221;-72
2023/01/25 05:29:35;;;;;;;10.10;5.50;;;;;;;0.72;87.38;100852.38;5114948;28;20052;-71
2023/01/25 05:32:08;;;;;;;12.35;6.50;;;;;;;0.69;87.54;100860.03;5114772;28;20482;-71
2023/01/25 05:34:34;;;;;;;9.05;5.53;;;;;;;0.70;87.30;100866.38;5113745;28;20028;-71
2023/01/25 05:37:01;;;;;;;9.45;5.53;;;;;;;0.61;87.26;100856.78;5114604;28;20027;-71
2023/01/25 05:39:26;;;;;;;10.77;5.03;;;;;;;0.58;87.34;100862.75;5111803;28;20020;-71
2023/01/25 05:41:52;;;;;;;9.00;4.90;;;;;;;0.52;87.26;100859.03;5114473;28;20046;-71
2023/01/25 05:44:18;;;;;;;11.65;5.78;;;;;;;0.62;87.64;100862.06;5113230;28;20108;-71
2023/01/25 05:46:43;;;;;;;8.60;4.28;;;;;;;0.57;86.09;100872.09;5112557;28;20410;-70
2023/01/25 05:49:10;;;;;;;8.35;4.80;;;;;;;0.77;87.34;100866.28;5097728;28;20043;-71
2023/01/25 05:51:37;;;;;;;9.35;5.15;;;;;;;0.63;87.80;100872.00;5111979;28;20027;-74
2023/01/25 05:54:04;;;;;;;11.23;5.68;;;;;;;0.60;88.23;100880.72;5109700;28;20032;-74
2023/01/25 05:56:30;;;;;;;9.38;5.68;;;;;;;0.51;87.84;100854.59;5109386;28;20406;-72
2023/01/25 05:58:57;;;;;;;14.57;6.68;;;;;;;0.51;89.38;100854.59;5112974;28;20026;-73
2023/01/25 06:01:24;;;;;;;12.48;6.78;;;;;;;0.59;88.96;100873.53;5109526;28;20028;-71
2023/01/25 06:03:49;;;;;;;9.05;5.35;;;;;;;0.50;88.46;100870.25;5109889;28;20027;-72
2023/01/25 06:06:15;;;;;;;10.98;6.15;;;;;;;0.61;88.39;100863.13;5112158;28;20032;-73
2023/01/25 06:08:41;;;;;;;11.05;6.50;;;;;;;0.68;88.53;100857.53;5112636;28;20030;-74
2023/01/25 06:11:08;;;;;;;11.70;6.30;;;;;;;0.64;87.99;100865.41;5111300;28;20020;-72
2023/01/25 06:13:34;;;;;;;14.48;7.28;;;;;;;0.77;88.53;100852.50;5108167;28;20016;-74
2023/01/25 06:16:00;;;;;;;16.55;8.10;;;;;;;0.80;88.43;100865.81;5108979;28;20024;-71
2023/01/25 06:18:31;;;;;;;17.40;8.45;;;;;;;0.74;88.38;100866.78;5100903;28;20032;-73
2023/01/25 06:20:58;;;;;;;17.58;7.45;;;;;;;0.74;87.52;100866.78;5104711;28;20070;-71
2023/01/25 06:23:24;;;;;;;14.30;7.85;;;;;;;0.67;88.16;100867.69;5105575;28;20077;-72
2023/01/25 06:25:49;;;;;;;10.63;6.70;;;;;;;0.66;88.19;100870.66;5109663;28;20027;-72
2023/01/25 06:28:15;;;;;;;15.63;7.55;;;;;;;0.74;87.24;100864.00;5110043;28;20106;-73
2023/01/25 06:30:40;;;;;;;13.40;7.68;;;;;;;0.74;88.75;100866.78;5112914;28;20031;-72
2023/01/25 06:33:06;;;;;;;14.70;7.60;;;;;;;0.66;88.50;100863.25;5113180;28;20027;-73
2023/01/25 06:35:32;;;;;;;16.88;8.50;;;;;;;0.62;87.99;100856.56;5110271;28;20465;-75
2023/01/25 06:37:59;;;;;;;13.98;7.43;;;;;;;0.72;87.86;100857.88;5108395;28;20030;-73
2023/01/25 06:40:26;;;;;;;15.07;7.85;;;;;;;0.67;86.93;100862.19;5096758;28;20065;-73
2023/01/25 06:42:51;;;;;;;23.73;8.80;;;;;;;0.73;85.43;100865.09;5098366;28;20039;-72
2023/01/25 06:45:17;;;;;;;14.48;7.55;;;;;;;0.66;86.70;100865.16;5109708;28;20035;-72
2023/01/25 06:47:42;;;;;;;13.10;6.93;;;;;;;0.57;85.29;100866.59;5112570;28;20118;-77
2023/01/25 06:50:09;;;;;;;14.20;7.70;;;;;;;0.57;86.31;100872.91;5095197;28;20073;-72
2023/01/25 06:52:35;;;;;;;14.27;8.30;;;;;;;0.67;86.36;100866.88;5112352;28;20492;-74
2023/01/25 06:55:06;;;;;;;14.40;7.80;;;;;;;0.72;85.09;100868.88;5112140;28;20510;-71
2023/01/25 06:57:33;;;;;;;20.48;8.15;;;;;;;0.70;85.15;100878.22;5111615;28;20080;-75
2023/01/25 06:59:59;;;;;;;16.77;7.80;;;;;;;0.66;84.50;100863.25;5111152;28;20093;-73
2023/01/25 07:02:25;;;;;;;15.25;7.70;;;;;;;0.70;84.56;100869.16;5109247;28;20023;-75
2023/01/25 07:04:50;;;;;;;13.52;6.10;;;;;;;0.76;84.23;100870.13;5111957;28;20024;-73
2023/01/25 07:07:15;;;;;;;14.60;6.68;;;;;;;0.72;84.41;100867.00;5109509;28;20042;-75
2023/01/25 07:09:41;;;;;;;14.35;6.93;;;;;;;0.77;84.92;100877.31;5110550;28;20020;-75
2023/01/25 07:12:06;;;;;;;17.95;8.38;;;;;;;0.81;84.64;100875.75;5109258;28;20031;-73
2023/01/25 07:14:32;;;;;;;12.90;8.10;;;;;;;0.64;85.00;100876.44;5109301;28;20191;-74
2023/01/25 07:16:58;;;;;;;15.73;7.72;;;;;;;0.74;84.53;100883.28;5103941;28;20079;-74
2023/01/25 07:19:24;;;;;;;17.45;9.93;;;;;;;0.80;84.65;100880.44;5102635;28;20409;-71
2023/01/25 07:21:49;;;;;;;18.67;8.38;;;;;;;0.88;83.96;100878.41;5110917;28;20024;-73
2023/01/25 07:24:17;;;;;;;16.50;8.73;;;;;;;0.72;84.09;100879.91;5111001;28;20038;-73
2023/01/25 07:26:43;;;;;;;22.60;9.00;;;;;;;0.78;84.75;100878.97;5111047;28;20027;-73
2023/01/25 07:29:14;;;;;;;20.23;8.68;;;;;;;0.76;83.90;100876.44;5104729;28;20471;-72
2023/01/25 07:31:40;;;;;;;41.42;9.00;;;;;;;0.88;84.48;100887.53;5107946;28;20031;-72
2023/01/25 07:34:08;;;;;;;17.25;8.95;;;;;;;0.78;84.00;100878.97;5105284;28;20443;-73
2023/01/25 07:36:34;;;;;;;24.08;8.82;;;;;;;0.74;83.91;100884.13;5109840;28;20031;-72
2023/01/25 07:39:00;;;;;;;21.40;10.13;;;;;;;0.75;85.18;100888.56;5108010;28;20059;-73
2023/01/25 07:41:26;;;;;;;18.20;8.35;;;;;;;0.77;84.57;100874.56;5105791;28;20110;-73
2023/01/25 07:43:51;;;;;;;15.85;9.13;;;;;;;0.83;84.90;100879.09;5110198;27;20050;-73
2023/01/25 07:46:17;;;;;;;19.80;8.93;;;;;;;0.72;84.11;100885.41;5112352;28;20033;-74
2023/01/25 07:48:47;;;;;;;15.70;7.72;;;;;;;0.77;83.34;100891.09;5106985;28;20032;-73
2023/01/25 07:51:26;;;;;;;16.10;8.38;;;;;;;0.78;83.86;100898.25;5109684;28;20031;-73
2023/01/25 07:53:54;;;;;;;11.48;7.05;;;;;;;0.76;84.16;100887.47;5107363;28;20031;-73
2023/01/25 07:56:26;;;;;;;12.85;7.00;;;;;;;0.74;84.54;100900.66;5110540;28;20088;-73
2023/01/25 07:58:55;;;;;;;17.60;7.20;;;;;;;0.74;85.32;100883.28;5103980;28;20543;-73
2023/01/25 08:01:23;;;;;;;15.48;8.10;;;;;;;0.72;85.94;100890.94;5108799;28;20045;-73
2023/01/25 08:03:49;;;;;;;18.65;7.53;;;;;;;0.68;86.26;100891.41;5110862;28;20122;-73
2023/01/25 08:06:16;;;;;;;16.02;8.32;;;;;;;0.74;86.89;100891.56;5115762;27;20473;-73
2023/01/25 08:08:47;;;;;;;17.92;8.05;;;;;;;0.75;85.68;100898.75;5109715;28;20482;-73
2023/01/25 08:11:19;;;;;;;14.00;7.90;;;;;;;0.89;85.41;100896.59;5108694;28;20238;-73
2023/01/25 08:13:45;;;;;;;15.18;8.02;;;;;;;0.68;83.87;100899.66;5102677;28;20107;-73
2023/01/25 08:16:24;;;;;;;18.25;7.70;;;;;;;0.74;84.48;100905.31;5108594;28;20027;-73
2023/01/25 08:18:55;;;;;;;20.13;8.75;;;;;;;0.70;83.79;100902.19;5108251;28;20381;-73
2023/01/25 08:21:28;;;;;;;14.45;7.88;;;;;;;0.64;83.72;100900.38;5109139;28;20027;-73
2023/01/25 08:23:58;;;;;;;16.27;9.00;;;;;;;0.79;83.68;100902.69;5110488;28;20039;-73
2023/01/25 08:26:23;;;;;;;16.85;9.23;;;;;;;0.74;83.75;100906.16;5107198;28;20114;-73
2023/01/25 08:28:51;;;;;;;15.23;8.48;;;;;;;0.70;83.66;100897.50;5110342;28;20031;-72
2023/01/25 08:31:20;;;;;;;15.45;7.85;;;;;;;0.91;83.08;100903.56;5110523;28;20118;-73
2023/01/25 08:33:47;;;;;;;19.40;8.57;;;;;;;0.88;83.14;100900.44;5111467;28;20051;-72
2023/01/25 08:36:14;;;;;;;18.42;8.98;;;;;;;0.84;83.49;100892.66;5109251;28;20517;-73
2023/01/25 08:38:40;;;;;;;17.88;9.73;;;;;;;0.91;84.62;100895.31;5108222;28;20400;-73
2023/01/25 08:41:06;;;;;;;20.17;9.43;;;;;;;1.01;84.53;100894.72;5107477;28;20122;-73
2023/01/25 08:43:32;;;;;;;20.42;10.15;;;;;;;1.00;85.00;100898.56;5109976;28;20020;-73
2023/01/25 08:45:58;;;;;;;17.48;8.70;;;;;;;1.02;83.54;100896.41;5106898;28;20054;-72
2023/01/25 08:48:23;;;;;;;20.27;9.18;;;;;;;0.99;83.66;100896.88;5108777;28;20023;-73
2023/01/25 08:50:49;;;;;;;23.52;8.68;;;;;;;0.89;84.46;100896.59;5109684;28;20084;-73
2023/01/25 08:53:14;;;;;;;16.23;9.20;;;;;;;0.93;85.13;100895.91;5109075;28;20102;-73
2023/01/25 08:55:41;;;;;;;14.18;7.72;;;;;;;0.89;85.47;100896.59;5108169;28;20027;-73
2023/01/25 08:58:11;;;;;;;15.77;8.52;;;;;;;0.94;85.46;100883.00;5109147;28;20103;-73
2023/01/25 09:00:40;;;;;;;19.70;9.20;;;;;;;0.93;85.24;100882.13;5110050;28;20030;-73
2023/01/25 09:03:07;;;;;;;19.65;10.02;;;;;;;0.96;84.90;100891.84;5110116;28;20027;-73
2023/01/25 09:05:34;;;;;;;17.30;9.52;;;;;;;0.91;84.92;100887.03;5110169;28;20058;-73
2023/01/25 09:08:01;;;;;;;19.92;10.30;;;;;;;0.91;85.65;100876.03;5108751;28;20470;-73
2023/01/25 09:10:26;;;;;;;23.30;11.65;;;;;;;0.98;84.43;100887.78;5110021;28;20395;-73
2023/01/25 09:12:52;;;;;;;16.05;8.70;;;;;;;0.96;84.60;100889.09;5107250;28;20027;-73
2023/01/25 09:15:17;;;;;;;17.70;9.35;;;;;;;1.05;82.60;100884.06;5107795;28;20023;-73
2023/01/25 09:17:42;;;;;;;19.17;8.98;;;;;;;0.98;83.10;100875.91;5109624;28;20042;-73
2023/01/25 09:20:09;;;;;;;13.15;7.95;;;;;;;1.02;83.25;100876.28;5106174;28;20028;-73
2023/01/25 09:22:35;;;;;;;13.43;8.25;;;;;;;1.03;83.00;100864.19;5104817;28;20080;-73
2023/01/25 09:25:00;;;;;;;21.15;9.82;;;;;;;0.97;84.98;100869.59;5112207;28;20030;-73
2023/01/25 09:27:26;;;;;;;17.33;9.45;;;;;;;1.04;85.76;100865.88;5113710;28;20028;-74
2023/01/25 09:29:51;;;;;;;21.98;11.10;;;;;;;1.07;83.74;100857.97;5108245;28;20048;-73
2023/01/25 09:32:17;;;;;;;23.35;12.27;;;;;;;1.07;84.74;100857.97;5106099;28;20023;-73
2023/01/25 09:34:42;;;;;;;20.42;10.98;;;;;;;1.07;85.65;100860.72;5111930;27;20027;-73
2023/01/25 09:37:08;;;;;;;20.27;10.02;;;;;;;1.06;84.83;100852.69;5109047;28;20027;-73
2023/01/25 09:39:33;;;;;;;22.30;10.60;;;;;;;1.06;84.69;100847.16;5113423;28;20030;-73
2023/01/25 09:42:19;;;;;;;23.20;10.25;;;;;;;1.10;83.57;100848.41;5109818;28;20122;-73
2023/01/25 09:44:45;;;;;;;17.67;9.95;;;;;;;1.15;84.25;100837.47;5114335;28;20092;-73
2023/01/25 09:47:33;;;;;;;17.23;10.05;;;;;;;1.17;84.33;100831.75;5114431;28;20499;-73
2023/01/25 09:50:25;;;;;;;19.45;10.15;;;;;;;1.24;83.76;100836.06;5108863;28;20087;-73
2023/01/25 09:53:18;;;;;;;16.50;8.77;;;;;;;1.16;83.47;100836.41;5110124;28;20581;-73
2023/01/25 09:55:49;;;;;;;18.67;10.88;;;;;;;1.11;84.81;100822.50;5112854;28;20093;-73
2023/01/25 09:58:20;;;;;;;16.23;8.68;;;;;;;1.10;83.59;100826.34;5112959;28;20106;-72
2023/01/25 10:00:50;;;;;;;16.05;9.02;;;;;;;1.03;83.67;100825.59;5114059;28;20111;-73
2023/01/25 10:03:26;;;;;;;20.77;9.43;;;;;;;1.08;83.54;100820.19;5111863;28;20410;-73
2023/01/25 10:05:57;;;;;;;23.38;13.07;;;;;;;1.09;83.94;100817.22;5113136;28;20024;-73
2023/01/25 10:08:29;;;;;;;33.90;14.43;;;;;;;1.12;82.46;100813.16;5114114;28;20100;-72
2023/01/25 10:11:01;;;;;;;19.25;10.50;;;;;;;1.09;82.28;100808.13;5113871;27;20035;-73
2023/01/25 10:13:30;;;;;;;26.92;11.52;;;;;;;1.29;82.25;100799.50;5108900;28;20035;-73
2023/01/25 10:16:01;;;;;;;23.45;9.52;;;;;;;1.25;81.11;100804.66;5105825;28;20482;-72
2023/01/25 10:18:52;;;;;;;27.40;11.48;;;;;;;1.10;80.66;100799.59;5112244;28;20055;-73
2023/01/25 10:21:31;;;;;;;27.85;11.20;;;;;;;1.09;81.25;100799.88;5111467;28;20118;-73
2023/01/25 10:24:07;;;;;;;18.67;10.90;;;;;;;1.14;80.44;100802.72;5113612;28;20019;-73
2023/01/25 10:26:34;;;;;;;22.77;10.27;;;;;;;1.09;80.26;100786.09;5112073;28;20442;-72
2023/01/25 10:29:20;;;;;;;17.40;9.85;;;;;;;1.12;81.34;100772.63;5112335;28;20103;-72
2023/01/25 10:31:54;;;;;;;18.92;9.30;;;;;;;1.16;81.18;100784.03;5097409;28;20102;-73
2023/01/25 10:34:43;;;;;;;18.45;9.88;;;;;;;1.17;81.18;100771.91;5113368;28;20027;-73
2023/01/25 10:37:15;;;;;;;22.52;9.90;;;;;;;1.20;80.73;100762.34;5112084;28;20032;-73
2023/01/25 10:39:53;;;;;;;19.25;9.48;;;;;;;1.14;81.70;100764.13;5113195;28;20062;-73
2023/01/25 10:42:19;;;;;;;19.05;8.65;;;;;;;1.12;81.47;100764.38;5112047;28;20110;-73
2023/01/25 10:44:44;;;;;;;25.95;12.82;;;;;;;1.19;80.64;100760.66;5110962;28;20118;-72
2023/01/25 10:47:24;;;;;;;16.13;9.50;;;;;;;1.10;79.86;100754.69;5111965;28;20027;-72
2023/01/25 10:49:52;;;;;;;32.03;12.23;;;;;;;1.22;80.49;100757.41;5104581;28;20084;-73
2023/01/25 10:52:24;;;;;;;15.63;8.43;;;;;;;1.20;80.33;100748.56;5110936;28;20080;-73
2023/01/25 10:55:25;;;;;;;42.35;17.52;;;;;;;1.40;80.41;100761.97;5111633;28;20027;-73
2023/01/25 10:57:58;;;;;;;16.48;10.15;;;;;;;1.22;81.12;100751.91;5092652;28;20020;-73
2023/01/25 11:00:40;;;;;;;19.80;11.63;;;;;;;1.25;81.91;100745.91;5091252;28;20020;-73
2023/01/25 11:03:18;;;;;;;20.00;11.27;;;;;;;1.23;82.93;100734.28;5100309;28;20486;-73
2023/01/25 11:05:55;;;;;;;16.17;8.65;;;;;;;1.30;81.64;100747.94;5112680;28;20417;-73
2023/01/25 11:08:30;;;;;;;34.35;16.13;;;;;;;1.37;81.35;100743.16;5110470;28;20448;-73
2023/01/25 11:10:56;;;;;;;21.60;10.82;;;;;;;1.32;81.35;100726.47;5112588;28;20042;-72
2023/01/25 11:13:31;;;;;;;26.63;11.35;;;;;;;1.31;82.44;100727.56;5097028;28;20052;-73
2023/01/25 11:16:05;;;;;;;19.33;9.90;;;;;;;1.25;81.47;100724.72;5092289;28;20020;-73
2023/01/25 11:18:34;;;;;;;22.23;10.82;;;;;;;1.35;81.48;100724.09;5112692;28;20035;-73
2023/01/25 11:21:17;;;;;;;24.40;11.05;;;;;;;1.35;81.67;100703.97;5111017;28;20135;-73
2023/01/25 11:23:56;;;;;;;37.22;15.95;;;;;;;1.41;80.93;100711.25;5112056;28;20458;-73
2023/01/25 11:26:21;;;;;;;35.15;15.25;;;;;;;1.34;79.83;100711.38;5110070;28;20490;-73
2023/01/25 11:28:47;;;;;;;24.52;13.07;;;;;;;1.40;80.36;100698.53;5111077;28;20120;-73
2023/01/25 11:31:17;;;;;;;23.15;11.48;;;;;;;1.26;80.75;100709.84;5112217;28;20073;-73